createdAt,value
2022-11-29T00:01:22.153Z,6.53
2022-11-29T00:03:31.162Z,5.67
2022-11-29T00:05:39.561Z,7.80
2022-11-29T00:07:47.982Z,5.80
2022-11-29T00:09:56.554Z,9.13
2022-11-29T00:12:14.578Z,6.77
2022-11-29T00:14:23.699Z,6.00
2022-11-29T00:16:33.984Z,8.23
2022-11-29T00:18:42.461Z,6.33
2022-11-29T00:20:50.864Z,9.50
2022-11-29T00:22:59.303Z,9.40
2022-11-29T00:25:08.241Z,7.87
2022-11-29T00:27:16.894Z,6.83
2022-11-29T00:29:25.305Z,7.87
2022-11-29T00:31:35.767Z,8.33
2022-11-29T00:33:44.188Z,6.67
2022-11-29T00:35:52.922Z,8.30
2022-11-29T00:38:01.317Z,8.73
2022-11-29T00:40:10.454Z,8.57
2022-11-29T00:42:19.078Z,6.13
2022-11-29T00:44:28.045Z,7.80
2022-11-29T00:46:37.971Z,8.37
2022-11-29T00:48:46.798Z,9.13
2022-11-29T00:50:55.707Z,8.40
2022-11-29T00:53:04.170Z,9.03
2022-11-29T00:55:12.642Z,7.50
2022-11-29T00:57:21.327Z,9.43
2022-11-29T00:59:30.372Z,8.17
2022-11-29T01:01:40.303Z,8.23
2022-11-29T01:03:49.028Z,10.17
2022-11-29T01:06:02.571Z,9.13
2022-11-29T01:08:11.473Z,8.03
2022-11-29T01:10:20.276Z,10.63
2022-11-29T01:12:28.902Z,9.13
2022-11-29T01:14:37.633Z,7.73
2022-11-29T01:16:47.580Z,8.67
2022-11-29T01:18:56.046Z,7.33
2022-11-29T01:21:06.984Z,7.40
2022-11-29T01:23:15.545Z,7.70
2022-11-29T01:25:24.057Z,8.97
2022-11-29T01:27:32.609Z,6.70
2022-11-29T01:29:42.179Z,7.30
2022-11-29T01:31:52.022Z,8.30
2022-11-29T01:34:01.109Z,7.23
2022-11-29T01:36:10.068Z,7.33
2022-11-29T01:38:18.848Z,8.97
2022-11-29T01:40:27.332Z,7.17
2022-11-29T01:42:35.960Z,8.83
2022-11-29T01:45:07.908Z,9.70
2022-11-29T01:47:18.411Z,9.17
2022-11-29T01:49:30.029Z,9.57
2022-11-29T01:51:39.482Z,7.17
2022-11-29T01:53:48.357Z,7.83
2022-11-29T01:55:59.642Z,7.47
2022-11-29T01:58:09.262Z,7.40
2022-11-29T02:00:19.331Z,7.17
2022-11-29T02:02:32.718Z,7.10
2022-11-29T02:04:41.556Z,6.33
2022-11-29T02:06:50.414Z,7.70
2022-11-29T02:08:59.123Z,6.87
2022-11-29T02:11:14.693Z,6.47
2022-11-29T02:13:29.499Z,7.30
2022-11-29T02:15:43.444Z,7.00
2022-11-29T02:18:02.872Z,8.87
2022-11-29T02:20:23.713Z,8.27
2022-11-29T02:22:34.787Z,8.57
2022-11-29T02:25:04.899Z,7.77
2022-11-29T02:27:28.340Z,6.73
2022-11-29T02:29:47.248Z,6.83
2022-11-29T02:32:05.765Z,9.03
2022-11-29T02:34:32.190Z,9.10
2022-11-29T02:36:52.554Z,6.10
2022-11-29T02:39:25.008Z,8.63
2022-11-29T02:41:43.968Z,7.63
2022-11-29T02:44:11.228Z,8.17
2022-11-29T02:46:30.047Z,5.90
2022-11-29T02:48:47.907Z,7.63
2022-11-29T02:50:59.686Z,8.03
2022-11-29T02:53:15.017Z,7.60
2022-11-29T02:55:26.895Z,6.90
2022-11-29T02:57:40.238Z,7.53
2022-11-29T02:59:52.660Z,6.30
2022-11-29T03:02:06.357Z,6.80
2022-11-29T03:04:19.274Z,9.47
2022-11-29T03:06:31.682Z,6.73
2022-11-29T03:08:45.810Z,7.43
2022-11-29T03:10:58.358Z,6.60
2022-11-29T03:13:10.497Z,7.50
2022-11-29T03:15:23.340Z,7.80
2022-11-29T03:17:34.185Z,7.37
2022-11-29T03:19:50.242Z,8.13
2022-11-29T03:22:04.142Z,7.03
2022-11-29T03:24:17.795Z,6.40
2022-11-29T03:26:28.932Z,9.23
2022-11-29T03:28:40.788Z,6.90
2022-11-29T03:30:51.683Z,7.50
2022-11-29T03:33:04.112Z,6.90
2022-11-29T03:35:15.599Z,8.77
2022-11-29T03:37:27.762Z,7.93
2022-11-29T03:39:43.455Z,8.63
2022-11-29T03:41:55.296Z,7.30
2022-11-29T03:44:09.035Z,8.43
2022-11-29T03:46:21.224Z,8.60
2022-11-29T03:48:33.329Z,7.53
2022-11-29T03:50:43.789Z,10.70
2022-11-29T03:52:54.379Z,7.70
2022-11-29T03:55:12.017Z,6.50
2022-11-29T03:57:22.826Z,8.07
2022-11-29T03:59:42.589Z,9.00
2022-11-29T04:02:06.228Z,9.13
2022-11-29T04:04:33.292Z,9.60
2022-11-29T04:06:52.141Z,7.07
2022-11-29T04:09:15.761Z,8.77
2022-11-29T04:11:55.015Z,9.83
2022-11-29T04:14:18.375Z,8.07
2022-11-29T04:16:46.071Z,8.93
2022-11-29T04:19:15.881Z,9.47
2022-11-29T04:21:33.085Z,8.33
2022-11-29T04:23:57.971Z,8.97
2022-11-29T04:26:34.663Z,10.27
2022-11-29T04:29:10.572Z,9.53
2022-11-29T04:31:30.639Z,9.13
2022-11-29T04:33:55.408Z,8.37
2022-11-29T04:36:25.741Z,8.50
2022-11-29T04:38:49.004Z,10.17
2022-11-29T04:41:02.787Z,10.53
2022-11-29T04:43:23.197Z,10.47
2022-11-29T04:45:46.124Z,8.90
2022-11-29T04:48:04.137Z,9.20
2022-11-29T04:50:22.364Z,9.40
2022-11-29T04:52:38.724Z,9.33
2022-11-29T04:54:49.642Z,9.47
2022-11-29T04:57:04.302Z,9.20
2022-11-29T04:59:15.871Z,11.17
2022-11-29T05:01:28.724Z,11.97
2022-11-29T05:03:40.823Z,10.50
2022-11-29T05:05:54.091Z,10.47
2022-11-29T05:08:10.601Z,11.23
2022-11-29T05:10:25.468Z,11.00
2022-11-29T05:12:37.394Z,9.47
2022-11-29T05:14:56.473Z,10.00
2022-11-29T05:17:14.324Z,11.50
2022-11-29T05:19:40.579Z,9.63
2022-11-29T05:21:53.440Z,10.63
2022-11-29T05:24:08.482Z,9.73
2022-11-29T05:26:21.465Z,10.03
2022-11-29T05:28:35.138Z,9.93
2022-11-29T05:30:54.806Z,10.07
2022-11-29T05:33:08.194Z,8.40
2022-11-29T05:35:41.715Z,7.17
2022-11-29T05:37:53.603Z,7.20
2022-11-29T05:40:16.711Z,9.27
2022-11-29T05:42:36.955Z,6.60
2022-11-29T05:44:47.491Z,7.67
2022-11-29T05:46:57.471Z,7.47
2022-11-29T05:49:12.280Z,7.33
2022-11-29T05:51:22.897Z,7.60
2022-11-29T05:53:36.089Z,9.27
2022-11-29T05:55:46.925Z,7.97
2022-11-29T05:57:58.921Z,7.80
2022-11-29T06:00:09.379Z,9.00
2022-11-29T06:02:25.143Z,9.57
2022-11-29T06:04:37.491Z,8.60
2022-11-29T06:06:49.044Z,7.37
2022-11-29T06:09:04.053Z,7.80
2022-11-29T06:11:16.264Z,9.73
2022-11-29T06:13:31.204Z,9.83
2022-11-29T06:15:46.664Z,6.77
2022-11-29T06:18:01.380Z,8.93
2022-11-29T06:20:28.588Z,9.70
2022-11-29T06:22:53.785Z,9.53
2022-11-29T06:25:11.937Z,9.40
2022-11-29T06:27:30.188Z,8.57
2022-11-29T06:29:41.729Z,8.43
2022-11-29T06:31:53.068Z,10.90
2022-11-29T06:34:04.788Z,8.60
2022-11-29T06:36:16.234Z,8.67
2022-11-29T06:38:26.518Z,8.90
2022-11-29T06:40:36.925Z,9.40
2022-11-29T06:42:45.749Z,11.23
2022-11-29T06:44:54.449Z,14.07
2022-11-29T06:47:08.115Z,9.27
2022-11-29T06:49:19.292Z,7.37
2022-11-29T06:51:31.608Z,8.87
2022-11-29T06:53:45.643Z,9.67
2022-11-29T06:55:58.236Z,13.47
2022-11-29T06:58:12.349Z,9.47
2022-11-29T07:00:22.512Z,8.23
2022-11-29T07:02:40.249Z,8.73
2022-11-29T07:04:54.087Z,10.13
2022-11-29T07:07:02.780Z,10.30
2022-11-29T07:09:14.858Z,9.13
2022-11-29T07:11:25.041Z,10.37
2022-11-29T07:13:33.750Z,11.13
2022-11-29T07:15:44.813Z,11.27
2022-11-29T07:18:04.076Z,10.03
2022-11-29T07:20:20.998Z,7.73
2022-11-29T07:22:47.804Z,9.87
2022-11-29T07:25:02.636Z,13.17
2022-11-29T07:27:18.383Z,8.33
2022-11-29T07:29:30.473Z,8.63
2022-11-29T07:31:46.191Z,10.07
2022-11-29T07:33:58.685Z,7.90
2022-11-29T07:36:12.059Z,10.00
2022-11-29T07:38:27.659Z,9.97
2022-11-29T07:40:42.361Z,7.83
2022-11-29T07:42:57.377Z,9.13
2022-11-29T07:45:11.349Z,7.97
2022-11-29T07:47:19.825Z,7.27
2022-11-29T07:49:28.417Z,7.20
2022-11-29T07:51:36.849Z,7.67
2022-11-29T07:53:46.539Z,7.63
2022-11-29T07:55:55.461Z,7.73
2022-11-29T07:58:05.292Z,8.00
2022-11-29T08:00:14.285Z,8.60
2022-11-29T08:02:28.584Z,6.33
2022-11-29T08:04:37.192Z,8.63
2022-11-29T08:06:45.646Z,7.67
2022-11-29T08:08:54.072Z,6.87
2022-11-29T08:11:02.483Z,9.13
2022-11-29T08:13:12.530Z,7.03
2022-11-29T08:15:21.698Z,6.33
2022-11-29T08:17:30.468Z,6.93
2022-11-29T08:19:39.190Z,6.83
2022-11-29T08:21:48.310Z,5.87
2022-11-29T08:23:56.700Z,6.57
2022-11-29T08:26:05.830Z,8.53
2022-11-29T08:28:16.317Z,6.60
2022-11-29T08:30:25.491Z,6.03
2022-11-29T08:32:34.001Z,8.90
2022-11-29T08:34:42.644Z,5.87
2022-11-29T08:36:51.556Z,6.20
2022-11-29T08:39:08.924Z,6.37
2022-11-29T08:41:18.802Z,8.10
2022-11-29T08:43:28.800Z,8.07
2022-11-29T08:45:37.314Z,7.40
2022-11-29T08:47:45.927Z,6.37
2022-11-29T08:50:03.998Z,4.93
2022-11-29T08:52:31.828Z,5.30
2022-11-29T08:54:40.414Z,4.23
2022-11-29T08:59:18.642Z,5.87
2022-11-29T09:01:27.149Z,4.90
2022-11-29T09:03:53.534Z,3.97
2022-11-29T09:06:11.931Z,5.03
2022-11-29T09:08:21.401Z,4.40
2022-11-29T09:10:29.821Z,4.07
2022-11-29T09:12:38.929Z,8.47
2022-11-29T09:14:48.769Z,6.00
2022-11-29T09:16:57.432Z,4.17
2022-11-29T09:19:06.350Z,6.00
2022-11-29T09:21:15.549Z,5.83
2022-11-29T09:23:24.106Z,4.40
2022-11-29T09:25:32.628Z,4.27
2022-11-29T09:27:41.927Z,3.87
2022-11-29T09:29:52.145Z,4.90
2022-11-29T09:32:00.779Z,3.47
2022-11-29T09:34:09.683Z,6.60
2022-11-29T09:36:18.144Z,4.90
2022-11-29T09:38:26.866Z,7.07
2022-11-29T09:40:39.589Z,4.90
2022-11-29T09:42:53.650Z,5.97
2022-11-29T09:45:12.965Z,5.63
2022-11-29T09:47:31.289Z,5.87
2022-11-29T09:49:54.422Z,4.10
2022-11-29T09:52:06.841Z,5.30
2022-11-29T09:54:20.281Z,4.93
2022-11-29T09:56:31.046Z,5.33
2022-11-29T09:58:43.809Z,5.53
2022-11-29T10:00:56.568Z,5.23
2022-11-29T10:03:11.789Z,5.97
2022-11-29T10:05:23.365Z,6.00
2022-11-29T10:07:36.148Z,5.47
2022-11-29T10:09:47.037Z,5.87
2022-11-29T10:12:00.146Z,5.47
2022-11-29T10:14:13.539Z,4.87
2022-11-29T10:16:26.351Z,5.43
2022-11-29T10:18:36.541Z,6.20
2022-11-29T10:20:49.255Z,5.87
2022-11-29T10:22:59.209Z,5.10
2022-11-29T10:25:10.436Z,4.57
2022-11-29T10:27:20.917Z,4.53
2022-11-29T10:29:29.614Z,5.10
2022-11-29T10:31:44.039Z,3.60
2022-11-29T10:33:52.753Z,4.60
2022-11-29T10:36:02.523Z,4.17
2022-11-29T10:38:30.343Z,4.03
2022-11-29T10:40:39.951Z,4.47
2022-11-29T10:42:53.175Z,4.17
2022-11-29T10:45:01.994Z,3.60
2022-11-29T10:47:12.042Z,5.13
2022-11-29T10:49:21.851Z,4.70
2022-11-29T10:51:30.600Z,3.83
2022-11-29T10:53:39.846Z,3.40
2022-11-29T10:55:50.832Z,3.87
2022-11-29T10:58:16.124Z,3.50
2022-11-29T11:00:25.198Z,2.87
2022-11-29T11:02:35.397Z,2.70
2022-11-29T11:04:46.585Z,3.23
2022-11-29T11:06:56.863Z,4.10
2022-11-29T11:09:14.448Z,3.17
2022-11-29T11:11:27.349Z,4.23
2022-11-29T11:13:36.372Z,4.63
2022-11-29T11:15:45.361Z,4.40
2022-11-29T11:17:59.863Z,4.03
2022-11-29T11:20:17.991Z,3.80
2022-11-29T11:22:27.902Z,3.30
2022-11-29T11:24:38.596Z,5.77
2022-11-29T11:26:47.514Z,2.80
2022-11-29T11:28:59.182Z,2.57
2022-11-29T11:31:09.008Z,2.73
2022-11-29T11:33:21.247Z,3.40
2022-11-29T11:35:29.835Z,4.10
2022-11-29T11:37:38.626Z,3.30
2022-11-29T11:39:47.834Z,3.70
2022-11-29T11:42:14.094Z,4.03
2022-11-29T11:44:47.992Z,4.30
2022-11-29T11:46:57.012Z,2.43
2022-11-29T11:49:15.040Z,2.33
2022-11-29T11:51:25.071Z,4.57
2022-11-29T11:53:35.884Z,2.67
2022-11-29T11:55:45.583Z,2.73
2022-11-29T11:58:02.255Z,2.37
2022-11-29T12:01:02.505Z,6.10
2022-11-29T12:03:04.942Z,2.93
2022-11-29T12:05:15.984Z,3.80
2022-11-29T12:07:59.291Z,2.87
2022-11-29T12:09:57.902Z,3.43
2022-11-29T12:12:10.501Z,4.73
2022-11-29T12:14:24.416Z,4.97
2022-11-29T12:16:36.578Z,4.57
2022-11-29T12:18:48.780Z,3.37
2022-11-29T12:21:01.039Z,3.57
2022-11-29T12:23:21.320Z,3.43
2022-11-29T12:25:32.069Z,4.33
2022-11-29T12:27:40.758Z,3.50
2022-11-29T12:29:49.409Z,4.17
2022-11-29T12:32:02.999Z,3.37
2022-11-29T12:34:22.433Z,4.93
2022-11-29T12:36:37.119Z,3.83
2022-11-29T12:39:01.493Z,2.67
2022-11-29T12:41:19.721Z,3.80
2022-11-29T12:43:32.089Z,5.13
2022-11-29T12:45:43.376Z,3.70
2022-11-29T12:47:56.020Z,3.37
2022-11-29T12:50:09.350Z,3.47
2022-11-29T12:52:22.166Z,6.33
2022-11-29T12:54:44.796Z,4.73
2022-11-29T12:57:00.174Z,3.70
2022-11-29T12:59:17.556Z,4.87
2022-11-29T13:01:30.440Z,3.50
2022-11-29T13:03:42.833Z,3.77
2022-11-29T13:05:57.515Z,4.17
2022-11-29T13:08:17.252Z,4.27
2022-11-29T13:10:37.617Z,3.63
2022-11-29T13:12:49.134Z,4.93
2022-11-29T13:15:02.183Z,3.67
2022-11-29T13:17:16.785Z,2.87
2022-11-29T13:19:31.609Z,4.70
2022-11-29T13:21:42.966Z,2.00
2022-11-29T13:24:11.143Z,3.63
2022-11-29T13:26:20.754Z,5.53
2022-11-29T13:28:30.495Z,3.43
2022-11-29T13:30:40.865Z,3.03
2022-11-29T13:32:52.302Z,4.10
2022-11-29T13:35:03.236Z,2.47
2022-11-29T13:37:16.592Z,2.90
2022-11-29T13:39:31.829Z,2.30
2022-11-29T13:41:43.853Z,2.87
2022-11-29T13:43:55.046Z,3.27
2022-11-29T13:46:07.478Z,2.77
2022-11-29T13:48:35.425Z,2.10
2022-11-29T13:50:45.349Z,3.90
2022-11-29T13:53:04.159Z,3.23
2022-11-29T13:55:31.320Z,2.93
2022-11-29T13:58:15.043Z,2.90
2022-11-29T14:00:35.823Z,2.50
2022-11-29T14:02:45.116Z,2.40
2022-11-29T14:04:53.971Z,3.00
2022-11-29T14:07:11.116Z,3.53
2022-11-29T14:09:25.561Z,3.23
2022-11-29T14:11:38.438Z,3.03
2022-11-29T14:13:50.977Z,2.63
2022-11-29T14:16:00.440Z,5.13
2022-11-29T14:18:09.450Z,2.27
2022-11-29T14:20:32.708Z,2.77
2022-11-29T14:23:05.341Z,4.40
2022-11-29T14:25:50.697Z,2.67
2022-11-29T14:27:58.628Z,3.63
2022-11-29T14:30:30.233Z,4.33
2022-11-29T14:32:46.237Z,3.80
2022-11-29T14:34:57.379Z,3.30
2022-11-29T14:37:09.448Z,3.07
2022-11-29T14:39:26.492Z,2.53
2022-11-29T14:41:47.825Z,2.60
2022-11-29T14:44:07.690Z,3.30
2022-11-29T14:46:29.187Z,2.63
2022-11-29T14:48:38.564Z,3.43
2022-11-29T14:50:47.252Z,3.93
2022-11-29T14:52:55.778Z,3.00
2022-11-29T14:55:10.201Z,2.53
2022-11-29T14:57:37.254Z,2.23
2022-11-29T14:59:49.985Z,2.80
2022-11-29T15:01:58.728Z,3.70
2022-11-29T15:04:08.063Z,3.97
2022-11-29T15:06:25.549Z,4.00
2022-11-29T15:08:35.159Z,4.43
2022-11-29T15:10:44.934Z,2.83
2022-11-29T15:12:53.535Z,2.63
2022-11-29T15:15:07.142Z,2.47
2022-11-29T15:17:22.257Z,2.53
2022-11-29T15:19:48.493Z,3.33
2022-11-29T15:22:01.586Z,1.90
2022-11-29T15:24:12.260Z,2.67
2022-11-29T15:26:21.820Z,1.93
2022-11-29T15:28:30.815Z,3.00
2022-11-29T15:30:41.782Z,3.80
2022-11-29T15:32:51.296Z,2.87
2022-11-29T15:35:00.228Z,2.80
2022-11-29T15:37:08.730Z,2.30
2022-11-29T15:39:35.274Z,2.13
2022-11-29T15:41:44.785Z,3.20
2022-11-29T15:43:54.501Z,5.60
2022-11-29T15:46:04.877Z,2.97
2022-11-29T15:48:15.104Z,4.10
2022-11-29T15:50:27.386Z,2.87
2022-11-29T15:52:37.131Z,3.13
2022-11-29T15:54:46.947Z,4.17
2022-11-29T15:56:56.777Z,1.97
2022-11-29T15:59:08.378Z,2.67
2022-11-29T16:01:20.855Z,2.70
2022-11-29T16:03:31.192Z,3.57
2022-11-29T16:05:39.881Z,3.03
2022-11-29T16:07:50.054Z,2.07
2022-11-29T16:10:00.405Z,3.70
2022-11-29T16:12:12.040Z,2.60
2022-11-29T16:14:23.595Z,3.60
2022-11-29T16:16:35.632Z,3.30
2022-11-29T16:18:45.016Z,2.53
2022-11-29T16:21:00.142Z,2.87
2022-11-29T16:23:15.644Z,3.17
2022-11-29T16:25:24.088Z,2.80
2022-11-29T16:27:33.440Z,2.90
2022-11-29T16:29:45.132Z,3.67
2022-11-29T16:31:55.304Z,6.07
2022-11-29T16:34:08.752Z,4.77
2022-11-29T16:36:18.321Z,4.50
2022-11-29T16:38:27.025Z,4.33
2022-11-29T16:40:36.326Z,4.40
2022-11-29T16:42:45.269Z,3.67
2022-11-29T16:44:58.595Z,4.37
2022-11-29T16:47:14.160Z,4.30
2022-11-29T16:49:34.135Z,3.30
2022-11-29T16:51:48.134Z,4.57
2022-11-29T16:53:56.703Z,4.80
2022-11-29T16:56:05.521Z,3.93
2022-11-29T16:58:14.565Z,3.43
2022-11-29T17:00:30.992Z,4.07
2022-11-29T17:02:40.994Z,4.80
2022-11-29T17:04:49.481Z,4.43
2022-11-29T17:06:58.366Z,6.80
2022-11-29T17:09:07.354Z,4.07
2022-11-29T17:11:15.961Z,4.83
2022-11-29T17:13:24.372Z,5.17
2022-11-29T17:15:32.801Z,3.87
2022-11-29T17:17:43.590Z,5.90
2022-11-29T17:19:52.126Z,4.67
2022-11-29T17:22:00.943Z,4.00
2022-11-29T17:24:11.713Z,4.20
2022-11-29T17:26:20.578Z,5.63
2022-11-29T17:28:29.514Z,4.13
2022-11-29T17:30:38.131Z,4.63
2022-11-29T17:32:48.016Z,5.53
2022-11-29T17:34:56.545Z,5.63
2022-11-29T17:37:05.037Z,6.10
2022-11-29T17:39:15.576Z,6.23
2022-11-29T17:41:24.762Z,4.37
2022-11-29T17:43:34.964Z,4.97
2022-11-29T17:45:43.475Z,4.33
2022-11-29T17:47:55.408Z,6.03
2022-11-29T17:50:04.099Z,6.63
2022-11-29T17:52:12.735Z,6.03
2022-11-29T17:54:21.386Z,5.90
2022-11-29T17:56:30.339Z,18.40
2022-11-29T17:58:39.797Z,7.87
2022-11-29T18:00:48.197Z,6.93
2022-11-29T18:02:58.058Z,8.43
2022-11-29T18:05:06.815Z,7.23
2022-11-29T18:07:17.205Z,6.03
2022-11-29T18:09:26.037Z,7.90
2022-11-29T18:11:43.225Z,7.90
2022-11-29T18:13:55.404Z,7.03
2022-11-29T18:16:04.846Z,8.23
2022-11-29T18:18:15.021Z,6.80
2022-11-29T18:20:23.438Z,8.63
2022-11-29T18:22:32.214Z,7.17
2022-11-29T18:24:44.309Z,9.90
2022-11-29T18:26:52.783Z,8.03
2022-11-29T18:29:01.534Z,8.13
2022-11-29T18:31:10.316Z,8.40
2022-11-29T18:33:20.188Z,8.43
2022-11-29T18:35:28.912Z,8.90
2022-11-29T18:38:12.783Z,9.40
2022-11-29T18:40:05.826Z,9.70
2022-11-29T18:42:14.265Z,8.47
2022-11-29T18:44:24.293Z,8.80
2022-11-29T18:46:33.242Z,7.63
2022-11-29T18:48:43.736Z,9.00
2022-11-29T18:50:52.128Z,9.57
2022-11-29T18:53:00.757Z,9.73
2022-11-29T18:55:09.764Z,11.50
2022-11-29T18:57:18.192Z,10.37
2022-11-29T18:59:26.882Z,9.63
2022-11-29T19:01:37.924Z,7.67
2022-11-29T19:03:50.424Z,10.50
2022-11-29T19:05:58.873Z,10.07
2022-11-29T19:08:07.340Z,9.07
2022-11-29T19:10:15.766Z,9.83
2022-11-29T19:12:24.186Z,10.30
2022-11-29T19:14:33.955Z,14.43
2022-11-29T19:16:43.165Z,11.53
2022-11-29T19:18:54.261Z,11.33
2022-11-29T19:21:06.329Z,8.30
2022-11-29T19:23:14.773Z,10.50
2022-11-29T19:25:23.203Z,10.63
2022-11-29T19:27:31.925Z,8.57
2022-11-29T19:29:40.332Z,8.27
2022-11-29T19:31:50.364Z,7.67
2022-11-29T19:34:00.281Z,10.60
2022-11-29T19:36:09.348Z,10.97
2022-11-29T19:38:18.003Z,10.93
2022-11-29T19:40:26.583Z,9.13
2022-11-29T19:42:34.980Z,11.37
2022-11-29T19:45:15.488Z,12.17
2022-11-29T19:47:12.069Z,10.03
2022-11-29T19:49:21.930Z,10.30
2022-11-29T19:51:30.611Z,8.63
2022-11-29T19:53:39.483Z,9.90
2022-11-29T19:55:47.997Z,11.27
2022-11-29T19:57:57.577Z,9.60
2022-11-29T20:00:06.362Z,9.53
2022-11-29T20:02:15.660Z,10.10
2022-11-29T20:04:25.669Z,12.47
2022-11-29T20:06:34.210Z,10.03
2022-11-29T20:08:42.883Z,9.93
2022-11-29T20:10:52.056Z,11.90
2022-11-29T20:13:00.750Z,10.30
2022-11-29T20:15:09.889Z,11.40
2022-11-29T20:17:18.344Z,9.30
2022-11-29T20:19:28.485Z,11.20
2022-11-29T20:21:38.122Z,11.00
2022-11-29T20:23:46.631Z,9.93
2022-11-29T20:25:55.511Z,8.97
2022-11-29T20:28:06.709Z,11.90
2022-11-29T20:30:15.958Z,10.37
2022-11-29T20:32:24.697Z,9.93
2022-11-29T20:34:34.872Z,12.10
2022-11-29T20:36:49.301Z,13.60
2022-11-29T20:39:00.282Z,10.33
2022-11-29T20:41:12.949Z,10.83
2022-11-29T20:43:23.330Z,9.93
2022-11-29T20:45:32.026Z,10.63
2022-11-29T20:47:43.078Z,12.10
2022-11-29T20:49:53.343Z,11.93
2022-11-29T20:52:04.652Z,8.90
2022-11-29T20:54:13.321Z,12.87
2022-11-29T20:56:21.739Z,11.80
2022-11-29T20:58:30.212Z,10.80
2022-11-29T21:00:38.815Z,11.03
2022-11-29T21:02:47.435Z,10.63
2022-11-29T21:04:57.593Z,10.90
2022-11-29T21:07:06.020Z,10.87
2022-11-29T21:09:14.667Z,10.37
2022-11-29T21:11:23.578Z,11.93
2022-11-29T21:13:32.627Z,13.67
2022-11-29T21:15:41.728Z,12.57
2022-11-29T21:17:50.646Z,10.07
2022-11-29T21:20:00.923Z,9.87
2022-11-29T21:22:13.816Z,10.40
2022-11-29T21:24:25.269Z,8.20
2022-11-29T21:26:41.484Z,8.37
2022-11-29T21:28:54.330Z,9.70
2022-11-29T21:31:03.041Z,8.20
2022-11-29T21:33:12.192Z,9.20
2022-11-29T21:35:22.037Z,8.53
2022-11-29T21:37:31.703Z,6.63
2022-11-29T21:39:40.153Z,9.50
2022-11-29T21:41:48.734Z,7.97
2022-11-29T21:44:12.546Z,5.80
2022-11-29T21:46:21.318Z,9.83
2022-11-29T21:48:35.847Z,4.93
2022-11-29T21:50:51.141Z,8.57
2022-11-29T21:52:59.811Z,7.10
2022-11-29T21:55:08.730Z,6.23
2022-11-29T21:57:17.340Z,6.40
2022-11-29T21:59:25.749Z,5.30
2022-11-29T22:01:34.806Z,5.33
2022-11-29T22:03:44.039Z,6.10
2022-11-29T22:05:53.793Z,6.97
2022-11-29T22:08:02.515Z,6.30
2022-11-29T22:10:13.527Z,4.73
2022-11-29T22:12:37.250Z,5.70
2022-11-29T22:14:45.970Z,5.37
2022-11-29T22:16:55.289Z,4.40
2022-11-29T22:19:03.727Z,4.67
2022-11-29T22:21:13.557Z,4.53
2022-11-29T22:23:22.193Z,5.07
2022-11-29T22:25:30.655Z,4.73
2022-11-29T22:27:39.290Z,5.70
2022-11-29T22:29:47.737Z,4.77
2022-11-29T22:31:57.595Z,4.60
2022-11-29T22:34:05.996Z,4.83
2022-11-29T22:36:15.820Z,4.43
2022-11-29T22:38:25.072Z,4.70
2022-11-29T22:40:33.701Z,5.33
2022-11-29T22:42:43.291Z,4.50
2022-11-29T22:44:51.864Z,5.10
2022-11-29T22:47:00.541Z,4.43
2022-11-29T22:49:09.088Z,4.10
2022-11-29T22:51:20.041Z,5.23
2022-11-29T22:53:28.479Z,7.27
2022-11-29T22:55:36.881Z,4.13
2022-11-29T22:57:45.322Z,3.50
2022-11-29T22:59:53.725Z,5.23
2022-11-29T23:02:02.180Z,4.13
2022-11-29T23:04:11.278Z,4.17
2022-11-29T23:06:22.009Z,5.00
2022-11-29T23:08:30.586Z,4.23
2022-11-29T23:10:38.968Z,3.87
